Terminal Aerodrome Forecast
Issued by NWS Newport/Morehead City, NC

Home | Current Version | Previous Version | Graphics & Text | Print | Product List | Glossary On
Versions: 1 2 3 4 5 6 7 8 9 10 11 12 13 14 15 16 17 18 19
000
FTUS42 KMHX 220538
TAFEWN
TAF
KEWN 220538Z 2206/2306 21004KT P6SM BKN250
     FM220900 22004KT P6SM SCT005 BKN100
      TEMPO 2209/2213 5SM BR BKN005
     FM221300 22005KT P6SM SCT015 BKN150
     FM221700 21008G15KT P6SM SCT040 BKN200
     FM230000 19007KT P6SM BKN200=

USA.gov is the U.S. government's official web portal to all federal, state and local government web resources and services.